Time;durP1;ratioP1;P1;durP2;ratioP2;P2;SDS_P1;SDS_P2;PMS_P1;PMS_P2;Temp;Humidity;BMP_temperature;BMP_pressure;BME280_temperature;BME280_humidity;BME280_pressure;Samples;Min_cycle;Max_cycle;Signal;HPM_P1;HPM_P2
2023/01/09 00:01:50;;;;;;;;;1.00;1.00;;;;;;;;5056347;28;45502;-72
2023/01/09 00:04:16;;;;;;;;;4.25;1.25;;;;;;;;5065736;28;45368;-72
2023/01/09 00:06:42;;;;;;;;;3.00;1.50;;;;;;;;5064466;27;45544;-72
2023/01/09 00:09:07;;;;;;;;;4.00;4.00;;;;;;;;5058224;28;45614;-72
2023/01/09 00:11:33;;;;;;;;;2.50;0.75;;;;;;;;5076045;28;45344;-71
2023/01/09 00:13:58;;;;;;;;;0.50;0.50;;;;;;;;5064953;28;45210;-72
2023/01/09 00:16:23;;;;;;;;;1.75;1.75;;;;;;;;5056891;28;45429;-72
2023/01/09 00:18:48;;;;;;;;;1.25;1.25;;;;;;;;5057014;28;45222;-72
2023/01/09 00:21:14;;;;;;;;;3.25;2.00;;;;;;;;5076623;28;45370;-72
2023/01/09 00:23:39;;;;;;;;;3.75;1.00;;;;;;;;5067468;28;45456;-71
2023/01/09 00:26:06;;;;;;;;;2.50;1.75;;;;;;;;5059437;28;45539;-71
2023/01/09 00:28:32;;;;;;;;;3.00;2.00;;;;;;;;5067517;28;45485;-71
2023/01/09 00:30:57;;;;;;;;;1.00;1.00;;;;;;;;5069897;28;45375;-70
2023/01/09 00:33:33;;;;;;;;;3.00;1.00;;;;;;;;5058508;28;45356;-71
2023/01/09 00:36:02;;;;;;;;;1.00;1.00;;;;;;;;5059623;28;45377;-72
2023/01/09 00:38:27;;;;;;;;;0.75;0.75;;;;;;;;5069039;28;45312;-71
2023/01/09 00:40:53;;;;;;;;;1.00;1.00;;;;;;;;5063092;27;45491;-71
2023/01/09 00:43:19;;;;;;;;;1.00;1.00;;;;;;;;5078524;28;45423;-71
2023/01/09 00:45:45;;;;;;;;;1.00;1.00;;;;;;;;5078366;28;46386;-72
2023/01/09 00:48:12;;;;;;;;;0.00;0.00;;;;;;;;5077111;27;45476;-71
2023/01/09 00:50:38;;;;;;;;;1.75;1.75;;;;;;;;5060211;28;45322;-71
2023/01/09 00:53:08;;;;;;;;;1.75;0.75;;;;;;;;5075776;28;45300;-71
2023/01/09 00:55:35;;;;;;;;;1.50;0.00;;;;;;;;5079327;27;46300;-71
2023/01/09 00:58:01;;;;;;;;;1.75;1.00;;;;;;;;5078091;28;45494;-71
2023/01/09 01:00:27;;;;;;;;;1.50;1.25;;;;;;;;5077946;28;45567;-70
2023/01/09 01:02:52;;;;;;;;;0.50;0.50;;;;;;;;5078387;27;45478;-71
2023/01/09 01:08:01;;;;;;;;;2.00;1.00;;;;;;;;5080774;27;45394;-70
2023/01/09 01:10:26;;;;;;;;;0.00;0.00;;;;;;;;5078369;28;45568;-70
2023/01/09 01:12:52;;;;;;;;;0.75;0.75;;;;;;;;5081770;27;45373;-71
2023/01/09 01:15:17;;;;;;;;;3.25;2.75;;;;;;;;5077838;28;45548;-71
2023/01/09 01:17:43;;;;;;;;;2.50;1.00;;;;;;;;5077815;28;45429;-70
2023/01/09 01:20:10;;;;;;;;;0.75;0.75;;;;;;;;5079054;28;45315;-71
2023/01/09 01:22:35;;;;;;;;;3.00;1.00;;;;;;;;5079074;27;45374;-71
2023/01/09 01:25:01;;;;;;;;;2.00;2.00;;;;;;;;5078936;28;46052;-71
2023/01/09 01:27:26;;;;;;;;;1.00;1.00;;;;;;;;5079039;28;45214;-71
2023/01/09 01:29:52;;;;;;;;;1.00;1.00;;;;;;;;5079177;27;45371;-71
2023/01/09 01:32:17;;;;;;;;;1.00;0.25;;;;;;;;5079248;27;45443;-71
2023/01/09 01:34:42;;;;;;;;;0.00;0.00;;;;;;;;5079207;27;46206;-72
2023/01/09 01:37:08;;;;;;;;;0.00;0.00;;;;;;;;5078718;28;45429;-72
2023/01/09 01:39:33;;;;;;;;;1.75;1.75;;;;;;;;5073034;28;45345;-71
2023/01/09 01:41:58;;;;;;;;;0.25;0.25;;;;;;;;5079312;27;45234;-71
2023/01/09 01:44:42;;;;;;;;;2.00;1.00;;;;;;;;5078516;27;45411;-71
2023/01/09 01:47:07;;;;;;;;;0.00;0.00;;;;;;;;5078731;28;45499;-71
2023/01/09 01:49:32;;;;;;;;;2.00;0.00;;;;;;;;5079173;28;45321;-71
2023/01/09 01:51:58;;;;;;;;;4.00;1.00;;;;;;;;5078538;28;45425;-72
2023/01/09 01:54:25;;;;;;;;;2.00;0.25;;;;;;;;5078652;28;46272;-73
2023/01/09 01:56:55;;;;;;;;;2.50;1.00;;;;;;;;5078326;27;45423;-72
2023/01/09 01:59:23;;;;;;;;;0.00;0.00;;;;;;;;5078668;28;45441;-72
2023/01/09 02:01:49;;;;;;;;;2.00;1.00;;;;;;;;5078195;28;45546;-72
2023/01/09 02:04:14;;;;;;;;;2.50;0.00;;;;;;;;5078215;28;45674;-72
2023/01/09 02:06:40;;;;;;;;;1.00;0.50;;;;;;;;5078182;28;45476;-71
2023/01/09 02:09:06;;;;;;;;;2.00;0.00;;;;;;;;5078847;28;45348;-71
2023/01/09 02:11:32;;;;;;;;;1.00;0.25;;;;;;;;5078676;28;45434;-71
2023/01/09 02:13:57;;;;;;;;;0.00;0.00;;;;;;;;5060940;27;46355;-72
2023/01/09 02:16:28;;;;;;;;;0.00;0.00;;;;;;;;5073804;28;45504;-74
2023/01/09 02:19:12;;;;;;;;;2.50;1.00;;;;;;;;5078251;27;45454;-72
2023/01/09 02:21:37;;;;;;;;;2.00;1.00;;;;;;;;5078633;27;45348;-73
2023/01/09 02:24:05;;;;;;;;;1.75;0.00;;;;;;;;5069530;27;46291;-72
2023/01/09 02:26:51;;;;;;;;;0.00;0.00;;;;;;;;5072459;27;45361;-72
2023/01/09 02:29:25;;;;;;;;;0.00;0.00;;;;;;;;5078089;28;45353;-72
2023/01/09 02:32:11;;;;;;;;;2.75;0.00;;;;;;;;5078338;28;45443;-72
2023/01/09 02:34:45;;;;;;;;;0.50;0.50;;;;;;;;5077943;28;45739;-72
2023/01/09 02:37:13;;;;;;;;;0.00;0.00;;;;;;;;5077713;28;45530;-73
2023/01/09 02:39:55;;;;;;;;;1.00;0.00;;;;;;;;5078240;28;45462;-72
2023/01/09 02:42:22;;;;;;;;;0.00;0.00;;;;;;;;5078165;28;45464;-72
2023/01/09 02:44:48;;;;;;;;;0.75;0.75;;;;;;;;5076925;27;46260;-72
2023/01/09 02:47:16;;;;;;;;;1.00;1.00;;;;;;;;5077764;28;45426;-72
2023/01/09 02:49:45;;;;;;;;;0.00;0.00;;;;;;;;5078145;28;45380;-72
2023/01/09 02:52:25;;;;;;;;;1.00;1.00;;;;;;;;5077960;28;45466;-73
2023/01/09 02:54:50;;;;;;;;;1.25;0.00;;;;;;;;5077513;28;46555;-72
2023/01/09 02:57:26;;;;;;;;;2.00;0.00;;;;;;;;5077815;27;45222;-73
2023/01/09 02:59:51;;;;;;;;;0.00;0.00;;;;;;;;5077150;27;45336;-73
2023/01/09 03:02:35;;;;;;;;;4.75;1.00;;;;;;;;5077708;28;45499;-72
2023/01/09 03:05:06;;;;;;;;;0.00;0.00;;;;;;;;5076441;28;45372;-72
2023/01/09 03:07:38;;;;;;;;;0.00;0.00;;;;;;;;5077546;28;45899;-72
2023/01/09 03:10:22;;;;;;;;;1.00;0.25;;;;;;;;5077907;27;45263;-72
2023/01/09 03:12:49;;;;;;;;;0.25;0.25;;;;;;;;5077693;28;45363;-73
2023/01/09 03:15:16;;;;;;;;;0.75;0.75;;;;;;;;5077433;28;45729;-73
2023/01/09 03:17:44;;;;;;;;;0.00;0.00;;;;;;;;5076546;27;45376;-72
2023/01/09 03:20:11;;;;;;;;;0.25;0.00;;;;;;;;5077688;28;45478;-72
2023/01/09 03:22:38;;;;;;;;;1.00;0.00;;;;;;;;5077749;27;45337;-72
2023/01/09 03:25:03;;;;;;;;;0.75;0.75;;;;;;;;5076984;28;46605;-73
2023/01/09 03:27:29;;;;;;;;;2.00;0.00;;;;;;;;5077322;27;45483;-72
2023/01/09 03:29:55;;;;;;;;;2.00;1.00;;;;;;;;5077177;27;45355;-72
2023/01/09 03:32:20;;;;;;;;;1.00;1.00;;;;;;;;5077689;28;45469;-73
2023/01/09 03:34:45;;;;;;;;;0.00;0.00;;;;;;;;5072829;27;46247;-72
2023/01/09 03:37:11;;;;;;;;;1.00;0.00;;;;;;;;5056969;28;45307;-72
2023/01/09 03:39:36;;;;;;;;;0.00;0.00;;;;;;;;5057066;28;45334;-72
2023/01/09 03:42:01;;;;;;;;;0.00;0.00;;;;;;;;5057205;28;45394;-72
2023/01/09 03:44:26;;;;;;;;;0.00;0.00;;;;;;;;5056913;28;46503;-72
2023/01/09 03:46:51;;;;;;;;;3.00;1.00;;;;;;;;5075863;28;45444;-72
2023/01/09 03:49:17;;;;;;;;;2.00;0.00;;;;;;;;5077131;28;45403;-72
2023/01/09 03:51:42;;;;;;;;;2.00;0.00;;;;;;;;5076346;27;45362;-72
2023/01/09 03:54:07;;;;;;;;;1.00;0.00;;;;;;;;5076811;27;46526;-72
2023/01/09 03:56:32;;;;;;;;;1.25;0.00;;;;;;;;5076909;28;45419;-72
2023/01/09 03:58:58;;;;;;;;;0.00;0.00;;;;;;;;5077057;27;46045;-72
2023/01/09 04:01:23;;;;;;;;;0.00;0.00;;;;;;;;5077210;28;45478;-73
2023/01/09 04:03:48;;;;;;;;;2.00;0.00;;;;;;;;5076605;28;46339;-71
2023/01/09 04:06:13;;;;;;;;;3.00;1.00;;;;;;;;5076505;28;45419;-73
2023/01/09 04:08:38;;;;;;;;;2.50;1.00;;;;;;;;5075469;28;45510;-73
2023/01/09 04:11:04;;;;;;;;;2.00;0.00;;;;;;;;5077244;28;45501;-72
2023/01/09 04:13:29;;;;;;;;;1.75;0.00;;;;;;;;5076703;28;45421;-72
2023/01/09 04:15:54;;;;;;;;;1.00;1.00;;;;;;;;5078790;28;45518;-72
2023/01/09 04:18:19;;;;;;;;;1.25;0.75;;;;;;;;5080281;28;45448;-71
2023/01/09 04:20:48;;;;;;;;;0.50;0.00;;;;;;;;5080529;28;45313;-72
2023/01/09 04:23:13;;;;;;;;;0.25;0.00;;;;;;;;5079534;27;46379;-71
2023/01/09 04:25:38;;;;;;;;;0.00;0.00;;;;;;;;5080205;28;45351;-72
2023/01/09 04:28:04;;;;;;;;;0.00;0.00;;;;;;;;5080213;27;45306;-72
2023/01/09 04:30:29;;;;;;;;;2.00;0.25;;;;;;;;5080091;28;45400;-72
2023/01/09 04:32:54;;;;;;;;;0.25;0.25;;;;;;;;5080265;28;45364;-72
2023/01/09 04:35:19;;;;;;;;;0.00;0.00;;;;;;;;5079851;28;45613;-72
2023/01/09 04:37:45;;;;;;;;;2.50;0.00;;;;;;;;5080117;28;45658;-72
2023/01/09 04:40:10;;;;;;;;;2.00;0.00;;;;;;;;5063158;27;45492;-72
2023/01/09 04:42:36;;;;;;;;;0.50;0.00;;;;;;;;5059670;28;46426;-72
2023/01/09 04:45:02;;;;;;;;;2.25;0.00;;;;;;;;5066931;28;45482;-72
2023/01/09 04:47:29;;;;;;;;;3.00;1.00;;;;;;;;5079893;28;45379;-71
2023/01/09 04:49:55;;;;;;;;;0.00;0.00;;;;;;;;5080080;28;45418;-72
2023/01/09 04:52:20;;;;;;;;;0.75;0.75;;;;;;;;5079633;27;46302;-72
2023/01/09 04:54:45;;;;;;;;;0.00;0.00;;;;;;;;5071899;28;45488;-72
2023/01/09 04:57:10;;;;;;;;;0.50;0.00;;;;;;;;5059734;28;45381;-71
2023/01/09 04:59:35;;;;;;;;;0.25;0.25;;;;;;;;5065244;28;45447;-72
2023/01/09 05:02:01;;;;;;;;;0.00;0.00;;;;;;;;5079652;28;45532;-71
2023/01/09 05:04:26;;;;;;;;;1.25;0.00;;;;;;;;5079604;28;45434;-72
2023/01/09 05:06:51;;;;;;;;;0.00;0.00;;;;;;;;5079705;28;45250;-72
2023/01/09 05:09:17;;;;;;;;;1.50;0.50;;;;;;;;5079751;28;45781;-71
2023/01/09 05:11:42;;;;;;;;;1.25;1.00;;;;;;;;5073170;28;45440;-71
2023/01/09 05:14:07;;;;;;;;;0.00;0.00;;;;;;;;5059321;28;45418;-72
2023/01/09 05:16:32;;;;;;;;;0.00;0.00;;;;;;;;5059326;28;45646;-71
2023/01/09 05:18:59;;;;;;;;;0.00;0.00;;;;;;;;5059246;28;45398;-72
2023/01/09 05:21:24;;;;;;;;;0.25;0.00;;;;;;;;5058926;28;45301;-71
2023/01/09 05:23:49;;;;;;;;;0.00;0.00;;;;;;;;5078425;28;45304;-71
2023/01/09 05:26:15;;;;;;;;;0.75;0.75;;;;;;;;5078936;28;45604;-71
2023/01/09 05:28:40;;;;;;;;;0.00;0.00;;;;;;;;5078442;27;45463;-71
2023/01/09 05:31:05;;;;;;;;;0.25;0.00;;;;;;;;5078637;28;46605;-71
2023/01/09 05:33:30;;;;;;;;;0.00;0.00;;;;;;;;5078965;28;45364;-71
2023/01/09 05:35:55;;;;;;;;;2.00;0.25;;;;;;;;5079021;28;45459;-71
2023/01/09 05:38:21;;;;;;;;;0.00;0.00;;;;;;;;5079361;28;45356;-71
2023/01/09 05:40:46;;;;;;;;;1.00;0.00;;;;;;;;5078712;28;45592;-71
2023/01/09 05:43:11;;;;;;;;;2.00;1.50;;;;;;;;5078974;28;45443;-71
2023/01/09 05:45:36;;;;;;;;;0.00;0.00;;;;;;;;5075208;27;45383;-71
2023/01/09 05:48:01;;;;;;;;;0.00;0.00;;;;;;;;5058961;28;45444;-71
2023/01/09 05:50:27;;;;;;;;;0.50;0.00;;;;;;;;5058319;28;45460;-71
2023/01/09 05:52:52;;;;;;;;;0.00;0.00;;;;;;;;5070716;28;45527;-71
2023/01/09 05:55:17;;;;;;;;;0.00;0.00;;;;;;;;5078871;27;45245;-71
2023/01/09 05:57:42;;;;;;;;;0.00;0.00;;;;;;;;5078468;27;45432;-71
2023/01/09 06:00:08;;;;;;;;;0.75;0.00;;;;;;;;5078565;27;45687;-72
2023/01/09 06:02:33;;;;;;;;;0.00;0.00;;;;;;;;5078291;28;45408;-71
2023/01/09 06:04:58;;;;;;;;;3.25;1.00;;;;;;;;5078468;27;45435;-72
2023/01/09 06:07:24;;;;;;;;;1.00;0.00;;;;;;;;5078839;28;45388;-72
2023/01/09 06:09:49;;;;;;;;;2.75;2.00;;;;;;;;5078563;27;46451;-72
2023/01/09 06:12:14;;;;;;;;;0.50;0.00;;;;;;;;5078521;28;45422;-71
2023/01/09 06:14:39;;;;;;;;;0.00;0.00;;;;;;;;5059319;27;45430;-71
2023/01/09 06:17:05;;;;;;;;;0.25;0.00;;;;;;;;5078580;28;45556;-70
2023/01/09 06:19:30;;;;;;;;;2.00;0.00;;;;;;;;5078253;27;46093;-69
2023/01/09 06:21:55;;;;;;;;;2.50;0.00;;;;;;;;5078259;28;45318;-69
2023/01/09 06:24:20;;;;;;;;;1.00;1.00;;;;;;;;5078391;27;45376;-70
2023/01/09 06:26:46;;;;;;;;;0.00;0.00;;;;;;;;5078567;28;45466;-70
2023/01/09 06:29:11;;;;;;;;;1.00;0.00;;;;;;;;5078115;28;46443;-70
2023/01/09 06:31:36;;;;;;;;;0.00;0.00;;;;;;;;5076929;27;45562;-70
2023/01/09 06:34:01;;;;;;;;;4.00;2.75;;;;;;;;5078353;28;45345;-70
2023/01/09 06:36:26;;;;;;;;;1.50;0.00;;;;;;;;5072240;28;46952;-70
2023/01/09 06:38:52;;;;;;;;;0.50;0.50;;;;;;;;5064985;28;45410;-70
2023/01/09 06:41:17;;;;;;;;;0.00;0.00;;;;;;;;5077999;28;45460;-71
2023/01/09 06:43:42;;;;;;;;;3.00;1.75;;;;;;;;5078227;28;45257;-71
2023/01/09 06:46:07;;;;;;;;;0.75;0.50;;;;;;;;5078153;28;45295;-70
2023/01/09 06:48:33;;;;;;;;;0.00;0.00;;;;;;;;5076647;27;45491;-70
2023/01/09 06:50:58;;;;;;;;;1.75;0.00;;;;;;;;5067147;28;45389;-70
2023/01/09 06:53:23;;;;;;;;;0.00;0.00;;;;;;;;5078006;27;45347;-70
2023/01/09 06:55:49;;;;;;;;;0.50;0.00;;;;;;;;5078066;28;45292;-70
2023/01/09 06:58:14;;;;;;;;;6.00;4.50;;;;;;;;5077543;28;45701;-69
2023/01/09 07:00:39;;;;;;;;;2.75;0.00;;;;;;;;5077588;27;45322;-69
2023/01/09 07:03:05;;;;;;;;;2.00;0.00;;;;;;;;5077948;28;45380;-69
2023/01/09 07:05:33;;;;;;;;;0.00;0.00;;;;;;;;5072606;27;45511;-68
2023/01/09 07:07:58;;;;;;;;;1.00;1.00;;;;;;;;5057167;28;45610;-68
2023/01/09 07:10:23;;;;;;;;;0.00;0.00;;;;;;;;5061224;28;45499;-68
2023/01/09 07:12:49;;;;;;;;;0.00;0.00;;;;;;;;5075836;27;45676;-68
2023/01/09 07:15:14;;;;;;;;;0.00;0.00;;;;;;;;5077593;28;45390;-68
2023/01/09 07:17:39;;;;;;;;;2.00;0.00;;;;;;;;5077405;28;45464;-67
2023/01/09 07:20:04;;;;;;;;;1.00;1.00;;;;;;;;5077673;27;45534;-67
2023/01/09 07:22:30;;;;;;;;;2.00;0.00;;;;;;;;5077533;28;45405;-68
2023/01/09 07:24:55;;;;;;;;;0.00;0.00;;;;;;;;5076709;27;45395;-68
2023/01/09 07:27:21;;;;;;;;;0.00;0.00;;;;;;;;5075911;27;46394;-67
2023/01/09 07:29:46;;;;;;;;;0.00;0.00;;;;;;;;5063267;27;45570;-67
2023/01/09 07:32:11;;;;;;;;;7.33;7.33;;;;;;;;5077647;28;45242;-68
2023/01/09 07:34:36;;;;;;;;;1.25;1.25;;;;;;;;5076935;28;45560;-67
2023/01/09 07:37:01;;;;;;;;;0.00;0.00;;;;;;;;5076805;27;45595;-67
2023/01/09 07:39:27;;;;;;;;;9.67;7.33;;;;;;;;5077219;28;45266;-67
2023/01/09 07:41:52;;;;;;;;;2.00;0.00;;;;;;;;5077423;28;45438;-67
2023/01/09 07:44:17;;;;;;;;;0.00;0.00;;;;;;;;5077366;28;45412;-68
2023/01/09 07:46:42;;;;;;;;;0.00;0.00;;;;;;;;5070995;27;45679;-67
2023/01/09 07:49:08;;;;;;;;;1.50;0.00;;;;;;;;5077129;28;45241;-68
2023/01/09 07:51:33;;;;;;;;;0.00;0.00;;;;;;;;5076873;28;45245;-68
2023/01/09 07:53:58;;;;;;;;;1.00;1.00;;;;;;;;5077590;28;45357;-67
2023/01/09 07:56:24;;;;;;;;;1.25;0.00;;;;;;;;5077087;28;45638;-67
2023/01/09 07:58:49;;;;;;;;;2.00;2.00;;;;;;;;5077073;28;45325;-67
2023/01/09 08:01:14;;;;;;;;;0.00;0.00;;;;;;;;5077129;28;45282;-66
2023/01/09 08:03:39;;;;;;;;;1.75;1.25;;;;;;;;5068623;27;45489;-67
2023/01/09 08:06:05;;;;;;;;;2.75;0.75;;;;;;;;5076581;28;46498;-67
2023/01/09 08:08:30;;;;;;;;;1.00;1.00;;;;;;;;5076198;27;45324;-67
2023/01/09 08:10:55;;;;;;;;;0.00;0.00;;;;;;;;5077097;28;45439;-67
2023/01/09 08:13:20;;;;;;;;;24.00;21.00;;;;;;;;5077346;28;45411;-67
2023/01/09 08:15:46;;;;;;;;;4.50;3.25;;;;;;;;5076745;28;45444;-67
2023/01/09 08:18:11;;;;;;;;;1.75;0.25;;;;;;;;5075961;27;45543;-67
2023/01/09 08:20:36;;;;;;;;;0.00;0.00;;;;;;;;5076955;28;45460;-67
2023/01/09 08:23:01;;;;;;;;;3.00;0.00;;;;;;;;5076845;28;45352;-67
2023/01/09 08:25:26;;;;;;;;;0.00;0.00;;;;;;;;5076912;28;46263;-67
2023/01/09 08:27:52;;;;;;;;;0.00;0.00;;;;;;;;5076654;28;45549;-67
2023/01/09 08:30:17;;;;;;;;;0.50;0.00;;;;;;;;5076388;28;45810;-67
2023/01/09 08:32:43;;;;;;;;;1.00;0.00;;;;;;;;5077084;28;45411;-67
2023/01/09 08:35:08;;;;;;;;;1.00;0.00;;;;;;;;5066911;27;45707;-67
2023/01/09 08:37:34;;;;;;;;;4.00;4.00;;;;;;;;5056206;28;45385;-67
2023/01/09 08:39:59;;;;;;;;;3.00;1.00;;;;;;;;5058350;28;45494;-67
2023/01/09 08:47:53;;;;;;;;;0.50;0.00;;;;;;;;5076636;28;45392;-67
2023/01/09 08:50:18;;;;;;;;;0.75;0.00;;;;;;;;5076534;28;45486;-67
2023/01/09 08:52:43;;;;;;;;;0.00;0.00;;;;;;;;5076390;27;45328;-67
2023/01/09 08:55:09;;;;;;;;;0.25;0.00;;;;;;;;5075989;28;46590;-67
2023/01/09 08:57:34;;;;;;;;;0.75;0.75;;;;;;;;5075678;28;45496;-67
2023/01/09 08:59:59;;;;;;;;;0.00;0.00;;;;;;;;5076376;28;45776;-67
2023/01/09 09:02:24;;;;;;;;;1.00;1.00;;;;;;;;5078027;28;45367;-67
2023/01/09 09:04:51;;;;;;;;;1.00;1.00;;;;;;;;5079776;28;46180;-67
2023/01/09 09:07:20;;;;;;;;;1.75;1.00;;;;;;;;5079648;28;45222;-67
2023/01/09 09:09:45;;;;;;;;;2.75;0.00;;;;;;;;5060440;27;45290;-67
2023/01/09 09:12:10;;;;;;;;;3.75;0.75;;;;;;;;5059821;28;45368;-67
2023/01/09 09:17:19;;;;;;;;;0.00;0.00;;;;;;;;5079647;28;45348;-67
2023/01/09 09:19:44;;;;;;;;;1.00;0.00;;;;;;;;5079792;27;45317;-67
2023/01/09 09:22:10;;;;;;;;;1.00;1.00;;;;;;;;5079800;27;45753;-67
2023/01/09 09:24:35;;;;;;;;;2.25;0.50;;;;;;;;5079395;28;45350;-67
2023/01/09 09:27:00;;;;;;;;;3.50;0.75;;;;;;;;5059576;27;45209;-67
2023/01/09 09:29:25;;;;;;;;;5.00;1.00;;;;;;;;5069219;28;45468;-67
2023/01/09 09:31:50;;;;;;;;;0.00;0.00;;;;;;;;5079870;27;45277;-67
2023/01/09 09:34:16;;;;;;;;;0.25;0.00;;;;;;;;5078993;27;45490;-67
2023/01/09 09:36:41;;;;;;;;;0.00;0.00;;;;;;;;5079418;28;45411;-67
2023/01/09 09:39:07;;;;;;;;;0.25;0.25;;;;;;;;5079210;28;45326;-67
2023/01/09 09:44:45;;;;;;;;;0.25;0.25;;;;;;;;5058772;28;45415;-67
2023/01/09 09:47:29;;;;;;;;;1.00;1.00;;;;;;;;5058258;28;45503;-67
2023/01/09 09:49:54;;;;;;;;;0.75;0.75;;;;;;;;5074176;28;45467;-67
2023/01/09 09:52:34;;;;;;;;;0.00;0.00;;;;;;;;5079400;28;45350;-67
2023/01/09 09:55:01;;;;;;;;;2.25;1.00;;;;;;;;5078640;28;45451;-67
2023/01/09 09:57:30;;;;;;;;;1.25;0.50;;;;;;;;5078797;28;45409;-67
2023/01/09 09:59:56;;;;;;;;;2.00;0.00;;;;;;;;5078137;27;45420;-67
2023/01/09 10:02:28;;;;;;;;;2.00;0.00;;;;;;;;5078917;28;45449;-67
2023/01/09 10:04:58;;;;;;;;;2.75;1.00;;;;;;;;5078643;28;46251;-67
2023/01/09 10:07:26;;;;;;;;;0.25;0.00;;;;;;;;5078872;27;45427;-67
2023/01/09 10:09:53;;;;;;;;;5.50;5.50;;;;;;;;5078502;28;45445;-67
2023/01/09 10:12:27;;;;;;;;;1.25;1.00;;;;;;;;5078553;28;45254;-67
2023/01/09 10:14:53;;;;;;;;;1.75;0.50;;;;;;;;5078535;28;47303;-67
2023/01/09 10:17:28;;;;;;;;;4.00;4.00;;;;;;;;5077231;27;45316;-67
2023/01/09 10:19:56;;;;;;;;;1.00;1.00;;;;;;;;5078649;27;45400;-67
2023/01/09 10:22:33;;;;;;;;;1.00;1.00;;;;;;;;5078223;27;45788;-67
2023/01/09 10:25:17;;;;;;;;;6.50;4.75;;;;;;;;5078293;27;46489;-67
2023/01/09 10:27:48;;;;;;;;;29.00;26.00;;;;;;;;5077954;28;45467;-67
2023/01/09 10:30:26;;;;;;;;;2.00;2.00;;;;;;;;5078123;27;45309;-67
2023/01/09 10:33:10;;;;;;;;;1.00;1.00;;;;;;;;5077916;27;45443;-67
2023/01/09 10:35:50;;;;;;;;;2.00;1.00;;;;;;;;5077654;28;45386;-67
2023/01/09 10:38:18;;;;;;;;;2.00;0.00;;;;;;;;5078094;28;45605;-68
2023/01/09 10:40:49;;;;;;;;;1.75;0.25;;;;;;;;5078124;28;45493;-68
2023/01/09 10:43:22;;;;;;;;;1.00;1.00;;;;;;;;5078422;28;45514;-67
2023/01/09 10:45:51;;;;;;;;;1.75;1.75;;;;;;;;5078232;28;45463;-67
2023/01/09 10:48:24;;;;;;;;;1.00;1.00;;;;;;;;5076434;27;45461;-67
2023/01/09 10:50:50;;;;;;;;;1.25;1.25;;;;;;;;5078161;28;45230;-68
2023/01/09 10:53:19;;;;;;;;;1.25;1.25;;;;;;;;5078165;28;45407;-67
2023/01/09 10:55:48;;;;;;;;;4.00;1.00;;;;;;;;5077799;27;46442;-67
2023/01/09 10:58:15;;;;;;;;;5.00;0.75;;;;;;;;5077617;28;45364;-67
2023/01/09 11:00:40;;;;;;;;;4.50;2.50;;;;;;;;5076531;28;45506;-68
2023/01/09 11:03:10;;;;;;;;;2.00;1.00;;;;;;;;5076813;27;45453;-68
2023/01/09 11:05:35;;;;;;;;;2.00;2.00;;;;;;;;5075949;28;46478;-68
2023/01/09 11:08:05;;;;;;;;;1.00;1.00;;;;;;;;5073371;27;45431;-68
2023/01/09 11:10:48;;;;;;;;;1.25;1.00;;;;;;;;5057500;28;45287;-68
2023/01/09 11:13:17;;;;;;;;;0.00;0.00;;;;;;;;5076804;27;45399;-69
2023/01/09 11:15:42;;;;;;;;;2.00;1.00;;;;;;;;5076379;28;47232;-68
2023/01/09 11:18:16;;;;;;;;;2.50;1.75;;;;;;;;5077721;27;45266;-67
2023/01/09 11:20:41;;;;;;;;;4.75;1.25;;;;;;;;5097770;27;45303;-67
2023/01/09 11:23:21;;;;;;;;;1.25;1.25;;;;;;;;5075425;28;45454;-67
2023/01/09 11:25:50;;;;;;;;;1.50;1.00;;;;;;;;5076665;28;46472;-67
2023/01/09 11:28:16;;;;;;;;;6.00;2.00;;;;;;;;5057954;27;45556;-68
2023/01/09 11:30:56;;;;;;;;;2.50;2.50;;;;;;;;5057386;28;45486;-68
2023/01/09 11:33:27;;;;;;;;;5.00;2.50;;;;;;;;5078553;27;45455;-67
2023/01/09 11:36:01;;;;;;;;;3.00;3.00;;;;;;;;5079246;27;46337;-67
2023/01/09 11:38:26;;;;;;;;;3.25;2.00;;;;;;;;5077517;27;45416;-67
2023/01/09 11:40:54;;;;;;;;;1.75;1.75;;;;;;;;5076247;27;45369;-67
2023/01/09 11:43:29;;;;;;;;;2.00;0.75;;;;;;;;5076246;27;45423;-67
2023/01/09 11:45:55;;;;;;;;;2.75;2.75;;;;;;;;5075581;28;47458;-67
2023/01/09 11:48:27;;;;;;;;;3.50;3.00;;;;;;;;5075742;27;45859;-67
2023/01/09 11:50:54;;;;;;;;;2.75;2.00;;;;;;;;5076015;28;45375;-67
2023/01/09 11:53:19;;;;;;;;;5.00;2.00;;;;;;;;5078598;27;45486;-68
2023/01/09 11:55:45;;;;;;;;;3.25;1.75;;;;;;;;5078630;27;46356;-67
2023/01/09 11:58:13;;;;;;;;;5.75;1.25;;;;;;;;5076942;27;45429;-68
2023/01/09 12:00:59;;;;;;;;;4.00;2.75;;;;;;;;5079327;27;45459;-69
2023/01/09 12:03:43;;;;;;;;;2.00;2.00;;;;;;;;5077194;28;45403;-68
2023/01/09 12:06:22;;;;;;;;;5.00;5.00;;;;;;;;5076225;28;45471;-69
2023/01/09 12:08:51;;;;;;;;;2.00;1.00;;;;;;;;5076199;28;45390;-69
2023/01/09 12:11:27;;;;;;;;;2.25;2.00;;;;;;;;5076390;28;45491;-69
2023/01/09 12:14:11;;;;;;;;;3.75;2.00;;;;;;;;5077128;28;45491;-69
2023/01/09 12:16:46;;;;;;;;;2.00;2.00;;;;;;;;5076749;28;47175;-69
2023/01/09 12:19:33;;;;;;;;;2.50;2.00;;;;;;;;5076865;28;45384;-69
2023/01/09 12:22:07;;;;;;;;;3.00;2.00;;;;;;;;5077026;28;45349;-69
2023/01/09 12:24:52;;;;;;;;;2.25;2.25;;;;;;;;5077130;28;45472;-69
2023/01/09 12:27:36;;;;;;;;;6.75;3.00;;;;;;;;5058468;28;46727;-66
2023/01/09 12:30:01;;;;;;;;;5.00;4.00;;;;;;;;5076380;28;45402;-66
2023/01/09 12:32:46;;;;;;;;;5.25;5.00;;;;;;;;5076897;28;45751;-66
2023/01/09 12:35:29;;;;;;;;;4.75;2.75;;;;;;;;5075975;28;45344;-66
2023/01/09 12:38:01;;;;;;;;;6.25;4.75;;;;;;;;5080161;28;46478;-66
2023/01/09 12:40:55;;;;;;;;;2.00;2.00;;;;;;;;5080084;28;45256;-66
2023/01/09 12:43:27;;;;;;;;;0.75;0.50;;;;;;;;5058219;28;45346;-66
2023/01/09 12:46:10;;;;;;;;;5.50;2.25;;;;;;;;5080258;27;45466;-66
2023/01/09 12:48:36;;;;;;;;;9.00;4.75;;;;;;;;5079846;28;46110;-66
2023/01/09 12:51:01;;;;;;;;;4.00;2.00;;;;;;;;5079751;28;45245;-66
2023/01/09 12:53:30;;;;;;;;;6.00;3.00;;;;;;;;5080273;28;45233;-66
2023/01/09 12:56:04;;;;;;;;;4.00;2.50;;;;;;;;5079879;28;45316;-66
2023/01/09 12:58:35;;;;;;;;;6.25;3.25;;;;;;;;5079786;27;45455;-66
2023/01/09 13:01:03;;;;;;;;;3.00;1.00;;;;;;;;5079850;27;45395;-66
2023/01/09 13:03:49;;;;;;;;;2.00;2.00;;;;;;;;5079880;28;45341;-66
2023/01/09 13:06:16;;;;;;;;;6.00;2.75;;;;;;;;5062099;28;45645;-66
2023/01/09 13:08:49;;;;;;;;;8.50;5.25;;;;;;;;5079666;28;46669;-66
2023/01/09 13:11:23;;;;;;;;;5.75;3.00;;;;;;;;5079493;27;45479;-66
2023/01/09 13:13:48;;;;;;;;;3.00;1.00;;;;;;;;5079652;27;46069;-68
2023/01/09 13:16:16;;;;;;;;;8.25;6.00;;;;;;;;5079859;28;45477;-69
2023/01/09 13:18:46;;;;;;;;;4.50;3.00;;;;;;;;5079683;28;46689;-69
2023/01/09 13:21:12;;;;;;;;;6.00;4.75;;;;;;;;5079228;28;45417;-66
2023/01/09 13:23:45;;;;;;;;;6.25;3.75;;;;;;;;5079724;28;45264;-67
2023/01/09 13:26:15;;;;;;;;;2.75;2.00;;;;;;;;5079602;28;45246;-67
2023/01/09 13:28:45;;;;;;;;;3.50;2.25;;;;;;;;5079277;28;45416;-67
2023/01/09 13:31:13;;;;;;;;;4.00;3.50;;;;;;;;5079012;27;45436;-67
2023/01/09 13:33:41;;;;;;;;;6.00;2.25;;;;;;;;5061179;28;45472;-69
2023/01/09 13:36:22;;;;;;;;;4.75;3.00;;;;;;;;5079429;28;45403;-69
2023/01/09 13:38:48;;;;;;;;;3.75;2.75;;;;;;;;5079039;28;46369;-68
2023/01/09 13:44:02;;;;;;;;;2.75;2.00;;;;;;;;5079313;28;45526;-68
2023/01/09 13:46:33;;;;;;;;;5.00;3.00;;;;;;;;5079266;28;45337;-69
2023/01/09 13:49:00;;;;;;;;;10.33;5.67;;;;;;;;5078272;27;45866;-68
2023/01/09 13:51:40;;;;;;;;;7.00;2.00;;;;;;;;5079155;28;45356;-69
2023/01/09 13:54:07;;;;;;;;;4.25;2.50;;;;;;;;5079060;28;45325;-68
2023/01/09 13:56:52;;;;;;;;;9.75;4.00;;;;;;;;5078984;28;45475;-69
2023/01/09 13:59:27;;;;;;;;;4.75;2.25;;;;;;;;5078652;27;47154;-69
2023/01/09 14:01:52;;;;;;;;;7.75;7.75;;;;;;;;5078862;28;45395;-69
2023/01/09 14:04:19;;;;;;;;;6.00;4.25;;;;;;;;5078934;28;45479;-69
2023/01/09 14:07:03;;;;;;;;;7.00;6.33;;;;;;;;5078977;28;45594;-69
2023/01/09 14:09:28;;;;;;;;;3.50;3.50;;;;;;;;5078565;28;46447;-68
2023/01/09 14:12:04;;;;;;;;;10.75;9.25;;;;;;;;5078476;28;45418;-69
2023/01/09 14:14:32;;;;;;;;;3.50;3.50;;;;;;;;5078842;28;45906;-68
2023/01/09 14:16:58;;;;;;;;;8.75;6.25;;;;;;;;5078730;27;45242;-68
2023/01/09 14:19:34;;;;;;;;;2.75;1.00;;;;;;;;5078641;27;45352;-68
2023/01/09 14:22:01;;;;;;;;;7.50;7.50;;;;;;;;5078408;27;45414;-69
2023/01/09 14:24:29;;;;;;;;;3.00;2.25;;;;;;;;5078654;28;45689;-68
2023/01/09 14:26:56;;;;;;;;;7.50;5.25;;;;;;;;5078770;28;45360;-68
2023/01/09 14:29:27;;;;;;;;;1.75;0.25;;;;;;;;5078107;28;45557;-66
2023/01/09 14:31:52;;;;;;;;;1.75;1.75;;;;;;;;5078437;28;45439;-66
2023/01/09 14:34:29;;;;;;;;;63.00;45.33;;;;;;;;5078516;28;45426;-66
2023/01/09 14:36:57;;;;;;;;;47.33;37.00;;;;;;;;5078442;28;45334;-66
2023/01/09 14:39:23;;;;;;;;;11.50;7.50;;;;;;;;5077888;28;45527;-68
2023/01/09 14:41:56;;;;;;;;;6.75;5.25;;;;;;;;5078104;28;45452;-68
2023/01/09 14:44:23;;;;;;;;;9.00;7.67;;;;;;;;5078235;28;45372;-68
2023/01/09 14:46:49;;;;;;;;;7.67;7.00;;;;;;;;5078351;28;45442;-68
2023/01/09 14:49:19;;;;;;;;;8.75;7.50;;;;;;;;5078174;27;46828;-69
2023/01/09 14:51:45;;;;;;;;;8.50;4.25;;;;;;;;5077981;28;45398;-68
2023/01/09 14:54:20;;;;;;;;;13.67;9.67;;;;;;;;5078234;28;45352;-68
2023/01/09 14:56:46;;;;;;;;;6.75;6.75;;;;;;;;5078182;28;45527;-68
2023/01/09 14:59:12;;;;;;;;;5.75;5.50;;;;;;;;5076835;28;46244;-66
2023/01/09 15:01:39;;;;;;;;;5.00;5.00;;;;;;;;5077716;28;45325;-66
2023/01/09 15:04:09;;;;;;;;;12.00;7.00;;;;;;;;5077883;28;45196;-66
2023/01/09 15:06:36;;;;;;;;;2.75;1.75;;;;;;;;5078082;28;45498;-66